Roseland, Florida
Current Conditions -  °F | °C
As of 3:53 AM on Thursday 27 Nov 2014 (Local Time) from KVRB Reporting Station
Clear Clear  
Wind Chill: 45°   Ceiling: Unl
Heat Index: 49°   Visibility: 10mi
Dew Point: 44°   Wind: 9mph
Humidity: 83%   Direction: 310°NW
Pressure: 30.22"   Gusts: NA
Location:  27.84°N, 80.49°W
Report Text: KVRB 270853Z AUTO 31008KT 10SM CLR 09/07 A3022 RMK AO2 SLP231 T00940067 53006
Loading
Personal Weather Stations






























Interactive Weather Map New forecast layout! Learn more

10-Day Weather Forecast

Advertisements
Track Severe Weather on mobile